sensor_id;sensor_type;location;lat;lon;timestamp;pressure;altitude;pressure_sealevel;temperature;humidity
14269;BME280;7218;51.480;7.006;2022-12-24T00:02:13;99714.63;;;11.28;100.00
14269;BME280;7218;51.480;7.006;2022-12-24T00:04:39;99739.09;;;11.26;100.00
14269;BME280;7218;51.480;7.006;2022-12-24T00:07:06;99736.34;;;11.30;100.00
14269;BME280;7218;51.480;7.006;2022-12-24T00:09:32;99734.88;;;11.48;100.00
14269;BME280;7218;51.480;7.006;2022-12-24T00:12:00;99729.63;;;11.49;100.00
14269;BME280;7218;51.480;7.006;2022-12-24T00:14:27;99736.19;;;11.35;100.00
14269;BME280;7218;51.480;7.006;2022-12-24T00:16:54;99739.72;;;11.32;100.00
14269;BME280;7218;51.480;7.006;2022-12-24T00:19:21;99739.41;;;11.43;100.00
14269;BME280;7218;51.480;7.006;2022-12-24T00:21:48;99742.72;;;11.48;100.00
14269;BME280;7218;51.480;7.006;2022-12-24T00:24:15;99746.66;;;11.33;100.00
14269;BME280;7218;51.480;7.006;2022-12-24T00:26:42;99741.47;;;11.32;100.00
14269;BME280;7218;51.480;7.006;2022-12-24T00:29:10;99753.03;;;11.25;100.00
14269;BME280;7218;51.480;7.006;2022-12-24T00:31:37;99753.09;;;11.21;100.00
14269;BME280;7218;51.480;7.006;2022-12-24T00:34:03;99761.31;;;11.37;100.00
14269;BME280;7218;51.480;7.006;2022-12-24T00:36:30;99757.53;;;11.19;100.00
14269;BME280;7218;51.480;7.006;2022-12-24T00:38:56;99754.09;;;11.17;100.00
14269;BME280;7218;51.480;7.006;2022-12-24T00:41:23;99765.25;;;11.22;100.00
14269;BME280;7218;51.480;7.006;2022-12-24T00:43:50;99758.97;;;11.30;100.00
14269;BME280;7218;51.480;7.006;2022-12-24T00:46:18;99765.56;;;11.12;100.00
14269;BME280;7218;51.480;7.006;2022-12-24T00:48:44;99763.47;;;11.25;100.00
14269;BME280;7218;51.480;7.006;2022-12-24T00:51:11;99758.06;;;11.01;100.00
14269;BME280;7218;51.480;7.006;2022-12-24T00:53:37;99760.94;;;11.21;100.00
14269;BME280;7218;51.480;7.006;2022-12-24T00:56:04;99768.63;;;11.26;100.00
14269;BME280;7218;51.480;7.006;2022-12-24T00:58:31;99780.47;;;11.08;100.00
14269;BME280;7218;51.480;7.006;2022-12-24T01:00:58;99783.50;;;11.24;100.00
14269;BME280;7218;51.480;7.006;2022-12-24T01:03:26;99789.44;;;11.29;100.00
14269;BME280;7218;51.480;7.006;2022-12-24T01:05:59;99780.19;;;11.17;100.00
14269;BME280;7218;51.480;7.006;2022-12-24T01:08:26;99784.94;;;11.05;100.00
14269;BME280;7218;51.480;7.006;2022-12-24T01:10:52;99785.28;;;10.93;100.00
14269;BME280;7218;51.480;7.006;2022-12-24T01:13:19;99788.63;;;10.98;100.00
14269;BME280;7218;51.480;7.006;2022-12-24T01:15:45;99786.00;;;10.98;100.00
14269;BME280;7218;51.480;7.006;2022-12-24T01:18:12;99787.19;;;10.86;100.00
14269;BME280;7218;51.480;7.006;2022-12-24T01:20:40;99799.28;;;10.90;100.00
14269;BME280;7218;51.480;7.006;2022-12-24T01:23:06;99805.06;;;10.70;100.00
14269;BME280;7218;51.480;7.006;2022-12-24T01:25:33;99814.88;;;10.61;100.00
14269;BME280;7218;51.480;7.006;2022-12-24T01:27:59;99820.63;;;10.72;100.00
14269;BME280;7218;51.480;7.006;2022-12-24T01:30:26;99829.66;;;10.60;100.00
14269;BME280;7218;51.480;7.006;2022-12-24T01:32:52;99830.56;;;10.59;100.00
14269;BME280;7218;51.480;7.006;2022-12-24T01:35:19;99838.38;;;10.59;100.00
14269;BME280;7218;51.480;7.006;2022-12-24T01:37:46;99837.81;;;10.47;100.00
14269;BME280;7218;51.480;7.006;2022-12-24T01:40:15;99847.13;;;10.57;100.00
14269;BME280;7218;51.480;7.006;2022-12-24T01:43:00;99837.91;;;10.76;100.00
14269;BME280;7218;51.480;7.006;2022-12-24T01:45:47;99838.09;;;10.70;100.00
14269;BME280;7218;51.480;7.006;2022-12-24T01:48:18;99831.03;;;10.73;100.00
14269;BME280;7218;51.480;7.006;2022-12-24T01:50:47;99842.63;;;10.62;100.00
14269;BME280;7218;51.480;7.006;2022-12-24T01:53:17;99840.69;;;10.70;100.00
14269;BME280;7218;51.480;7.006;2022-12-24T01:55:44;99849.16;;;10.78;100.00
14269;BME280;7218;51.480;7.006;2022-12-24T01:58:13;99847.06;;;10.60;100.00
14269;BME280;7218;51.480;7.006;2022-12-24T02:00:40;99867.47;;;10.43;100.00
14269;BME280;7218;51.480;7.006;2022-12-24T02:03:06;99859.50;;;10.49;100.00
14269;BME280;7218;51.480;7.006;2022-12-24T02:05:37;99866.69;;;10.73;100.00
14269;BME280;7218;51.480;7.006;2022-12-24T02:08:07;99862.56;;;10.66;100.00
14269;BME280;7218;51.480;7.006;2022-12-24T02:10:35;99874.72;;;10.65;100.00
14269;BME280;7218;51.480;7.006;2022-12-24T02:13:03;99874.88;;;10.59;100.00
14269;BME280;7218;51.480;7.006;2022-12-24T02:15:35;99879.00;;;10.68;100.00
14269;BME280;7218;51.480;7.006;2022-12-24T02:18:09;99882.13;;;10.48;100.00
14269;BME280;7218;51.480;7.006;2022-12-24T02:24:10;99900.06;;;10.60;100.00
14269;BME280;7218;51.480;7.006;2022-12-24T02:27:10;99902.34;;;10.39;100.00
14269;BME280;7218;51.480;7.006;2022-12-24T02:30:04;99911.78;;;10.43;100.00
14269;BME280;7218;51.480;7.006;2022-12-24T02:32:36;99909.41;;;10.33;100.00
14269;BME280;7218;51.480;7.006;2022-12-24T02:35:11;99915.75;;;10.59;100.00
14269;BME280;7218;51.480;7.006;2022-12-24T02:37:43;99919.38;;;10.52;100.00
14269;BME280;7218;51.480;7.006;2022-12-24T02:40:15;99919.94;;;10.64;100.00
14269;BME280;7218;51.480;7.006;2022-12-24T02:42:47;99915.13;;;10.82;100.00
14269;BME280;7218;51.480;7.006;2022-12-24T02:45:20;99929.97;;;10.46;100.00
14269;BME280;7218;51.480;7.006;2022-12-24T02:47:48;99932.00;;;10.34;100.00
14269;BME280;7218;51.480;7.006;2022-12-24T02:50:17;99928.31;;;10.42;100.00
14269;BME280;7218;51.480;7.006;2022-12-24T02:52:45;99919.88;;;10.32;100.00
14269;BME280;7218;51.480;7.006;2022-12-24T02:55:14;99934.25;;;10.48;100.00
14269;BME280;7218;51.480;7.006;2022-12-24T02:57:55;99929.03;;;10.48;100.00
14269;BME280;7218;51.480;7.006;2022-12-24T03:00:25;99932.50;;;10.49;100.00
14269;BME280;7218;51.480;7.006;2022-12-24T03:03:05;99937.56;;;10.55;100.00
14269;BME280;7218;51.480;7.006;2022-12-24T03:05:39;99934.38;;;10.44;100.00
14269;BME280;7218;51.480;7.006;2022-12-24T03:08:13;99929.25;;;10.41;100.00
14269;BME280;7218;51.480;7.006;2022-12-24T03:10:46;99934.31;;;10.07;100.00
14269;BME280;7218;51.480;7.006;2022-12-24T03:13:18;99932.69;;;10.03;100.00
14269;BME280;7218;51.480;7.006;2022-12-24T03:15:48;99929.94;;;10.10;100.00
14269;BME280;7218;51.480;7.006;2022-12-24T03:18:17;99939.63;;;10.04;100.00
14269;BME280;7218;51.480;7.006;2022-12-24T03:20:49;99931.81;;;10.04;100.00
14269;BME280;7218;51.480;7.006;2022-12-24T03:23:18;99940.63;;;9.97;100.00
14269;BME280;7218;51.480;7.006;2022-12-24T03:25:45;99932.22;;;10.25;100.00
14269;BME280;7218;51.480;7.006;2022-12-24T03:28:16;99934.00;;;10.22;100.00
14269;BME280;7218;51.480;7.006;2022-12-24T03:30:45;99940.19;;;10.18;100.00
14269;BME280;7218;51.480;7.006;2022-12-24T03:33:15;99957.22;;;10.32;100.00
14269;BME280;7218;51.480;7.006;2022-12-24T03:35:41;99956.88;;;10.09;100.00
14269;BME280;7218;51.480;7.006;2022-12-24T03:38:08;99957.47;;;10.22;100.00
14269;BME280;7218;51.480;7.006;2022-12-24T03:40:35;99958.31;;;10.22;100.00
14269;BME280;7218;51.480;7.006;2022-12-24T03:43:01;99967.25;;;10.11;100.00
14269;BME280;7218;51.480;7.006;2022-12-24T03:45:28;99952.41;;;10.16;100.00
14269;BME280;7218;51.480;7.006;2022-12-24T03:47:54;99959.44;;;10.11;100.00
14269;BME280;7218;51.480;7.006;2022-12-24T03:50:22;99962.97;;;10.07;100.00
14269;BME280;7218;51.480;7.006;2022-12-24T03:52:49;99955.84;;;10.16;100.00
14269;BME280;7218;51.480;7.006;2022-12-24T03:55:16;99964.59;;;10.12;100.00
14269;BME280;7218;51.480;7.006;2022-12-24T03:57:42;99970.66;;;10.16;100.00
14269;BME280;7218;51.480;7.006;2022-12-24T04:00:10;99971.88;;;10.36;100.00
14269;BME280;7218;51.480;7.006;2022-12-24T04:02:37;99963.41;;;10.28;100.00
14269;BME280;7218;51.480;7.006;2022-12-24T04:05:05;99966.25;;;10.16;100.00
14269;BME280;7218;51.480;7.006;2022-12-24T04:07:33;99970.84;;;10.45;100.00
14269;BME280;7218;51.480;7.006;2022-12-24T04:10:00;99974.91;;;10.18;100.00
14269;BME280;7218;51.480;7.006;2022-12-24T04:12:26;99961.56;;;9.93;100.00
14269;BME280;7218;51.480;7.006;2022-12-24T04:14:53;99966.56;;;10.03;100.00
14269;BME280;7218;51.480;7.006;2022-12-24T04:17:20;99972.84;;;9.94;100.00
14269;BME280;7218;51.480;7.006;2022-12-24T04:19:46;99977.31;;;10.27;100.00
14269;BME280;7218;51.480;7.006;2022-12-24T04:22:13;99972.84;;;10.32;100.00
14269;BME280;7218;51.480;7.006;2022-12-24T04:24:40;99981.84;;;10.19;100.00
14269;BME280;7218;51.480;7.006;2022-12-24T04:27:07;99984.31;;;10.25;100.00
14269;BME280;7218;51.480;7.006;2022-12-24T04:29:33;99975.66;;;10.23;100.00
14269;BME280;7218;51.480;7.006;2022-12-24T04:32:00;99985.13;;;10.27;100.00
14269;BME280;7218;51.480;7.006;2022-12-24T04:34:27;99989.22;;;10.39;100.00
14269;BME280;7218;51.480;7.006;2022-12-24T04:36:53;99992.28;;;10.19;100.00
14269;BME280;7218;51.480;7.006;2022-12-24T04:39:20;99991.19;;;10.28;100.00
14269;BME280;7218;51.480;7.006;2022-12-24T04:41:47;99999.63;;;10.41;100.00
14269;BME280;7218;51.480;7.006;2022-12-24T04:44:14;100001.56;;;10.31;100.00
14269;BME280;7218;51.480;7.006;2022-12-24T04:46:41;99999.31;;;10.53;100.00
14269;BME280;7218;51.480;7.006;2022-12-24T04:49:07;99997.81;;;10.43;100.00
14269;BME280;7218;51.480;7.006;2022-12-24T04:51:34;99998.56;;;10.48;100.00
14269;BME280;7218;51.480;7.006;2022-12-24T04:54:00;99997.22;;;10.67;100.00
14269;BME280;7218;51.480;7.006;2022-12-24T04:56:29;100008.09;;;10.49;100.00
14269;BME280;7218;51.480;7.006;2022-12-24T04:58:57;100008.75;;;10.57;100.00
14269;BME280;7218;51.480;7.006;2022-12-24T05:01:26;100008.19;;;10.46;100.00
14269;BME280;7218;51.480;7.006;2022-12-24T05:03:53;100006.03;;;10.63;100.00
14269;BME280;7218;51.480;7.006;2022-12-24T05:06:21;100007.44;;;10.76;100.00
14269;BME280;7218;51.480;7.006;2022-12-24T05:08:48;100008.34;;;10.75;100.00
14269;BME280;7218;51.480;7.006;2022-12-24T05:11:15;100010.50;;;10.93;100.00
14269;BME280;7218;51.480;7.006;2022-12-24T05:13:42;100006.25;;;10.89;100.00
14269;BME280;7218;51.480;7.006;2022-12-24T05:16:11;100017.66;;;10.85;100.00
14269;BME280;7218;51.480;7.006;2022-12-24T05:18:38;100020.44;;;10.77;100.00
14269;BME280;7218;51.480;7.006;2022-12-24T05:21:07;100021.78;;;10.94;100.00
14269;BME280;7218;51.480;7.006;2022-12-24T05:23:34;100013.56;;;10.75;100.00
14269;BME280;7218;51.480;7.006;2022-12-24T05:26:29;100019.28;;;10.89;100.00
14269;BME280;7218;51.480;7.006;2022-12-24T05:28:58;100010.97;;;11.09;100.00
14269;BME280;7218;51.480;7.006;2022-12-24T05:31:28;100027.50;;;10.74;100.00
14269;BME280;7218;51.480;7.006;2022-12-24T05:33:55;100016.81;;;10.83;100.00
14269;BME280;7218;51.480;7.006;2022-12-24T05:36:22;100018.44;;;10.52;100.00
14269;BME280;7218;51.480;7.006;2022-12-24T05:38:49;100026.53;;;10.76;100.00
14269;BME280;7218;51.480;7.006;2022-12-24T05:41:16;100030.47;;;10.59;100.00
14269;BME280;7218;51.480;7.006;2022-12-24T05:43:43;100037.56;;;10.52;100.00
14269;BME280;7218;51.480;7.006;2022-12-24T05:46:12;100039.41;;;10.84;100.00
14269;BME280;7218;51.480;7.006;2022-12-24T05:48:40;100047.00;;;10.56;100.00
14269;BME280;7218;51.480;7.006;2022-12-24T05:51:09;100035.69;;;10.59;100.00
14269;BME280;7218;51.480;7.006;2022-12-24T05:53:37;100039.91;;;10.63;100.00
14269;BME280;7218;51.480;7.006;2022-12-24T05:56:04;100035.81;;;10.53;100.00
14269;BME280;7218;51.480;7.006;2022-12-24T05:58:31;100041.16;;;10.47;100.00
14269;BME280;7218;51.480;7.006;2022-12-24T06:00:58;100036.50;;;10.61;100.00
14269;BME280;7218;51.480;7.006;2022-12-24T06:03:25;100040.28;;;10.48;100.00
14269;BME280;7218;51.480;7.006;2022-12-24T06:06:01;100035.75;;;10.56;100.00
14269;BME280;7218;51.480;7.006;2022-12-24T06:08:29;100039.16;;;10.58;100.00
14269;BME280;7218;51.480;7.006;2022-12-24T06:10:56;100037.25;;;10.66;100.00
14269;BME280;7218;51.480;7.006;2022-12-24T06:13:24;100050.47;;;10.58;100.00
14269;BME280;7218;51.480;7.006;2022-12-24T06:15:53;100043.19;;;10.71;100.00
14269;BME280;7218;51.480;7.006;2022-12-24T06:18:19;100056.56;;;10.57;100.00
14269;BME280;7218;51.480;7.006;2022-12-24T06:20:49;100058.69;;;10.78;100.00
14269;BME280;7218;51.480;7.006;2022-12-24T06:23:17;100065.84;;;10.70;100.00
14269;BME280;7218;51.480;7.006;2022-12-24T06:25:43;100072.50;;;10.82;100.00
14269;BME280;7218;51.480;7.006;2022-12-24T06:28:10;100079.13;;;10.58;100.00
14269;BME280;7218;51.480;7.006;2022-12-24T06:30:36;100084.97;;;10.69;100.00
14269;BME280;7218;51.480;7.006;2022-12-24T06:33:03;100090.84;;;10.77;100.00
14269;BME280;7218;51.480;7.006;2022-12-24T06:35:30;100097.16;;;10.69;100.00
14269;BME280;7218;51.480;7.006;2022-12-24T06:37:56;100091.31;;;10.58;100.00
14269;BME280;7218;51.480;7.006;2022-12-24T06:40:25;100082.06;;;10.45;100.00
14269;BME280;7218;51.480;7.006;2022-12-24T06:42:52;100088.50;;;10.67;100.00
14269;BME280;7218;51.480;7.006;2022-12-24T06:45:18;100083.59;;;10.53;100.00
14269;BME280;7218;51.480;7.006;2022-12-24T06:47:44;100092.31;;;10.52;100.00
14269;BME280;7218;51.480;7.006;2022-12-24T06:50:11;100100.97;;;10.53;100.00
14269;BME280;7218;51.480;7.006;2022-12-24T06:52:38;100097.47;;;10.55;100.00
14269;BME280;7218;51.480;7.006;2022-12-24T06:55:05;100104.00;;;10.73;100.00
14269;BME280;7218;51.480;7.006;2022-12-24T06:57:33;100105.31;;;10.54;100.00
14269;BME280;7218;51.480;7.006;2022-12-24T06:59:59;100109.34;;;10.68;100.00
14269;BME280;7218;51.480;7.006;2022-12-24T07:02:26;100110.09;;;10.72;100.00
14269;BME280;7218;51.480;7.006;2022-12-24T07:04:53;100100.75;;;10.63;100.00
14269;BME280;7218;51.480;7.006;2022-12-24T07:07:19;100114.09;;;10.88;100.00
14269;BME280;7218;51.480;7.006;2022-12-24T07:09:45;100114.72;;;10.61;100.00
14269;BME280;7218;51.480;7.006;2022-12-24T07:12:12;100128.09;;;10.46;100.00
14269;BME280;7218;51.480;7.006;2022-12-24T07:14:40;100127.56;;;10.70;100.00
14269;BME280;7218;51.480;7.006;2022-12-24T07:17:06;100132.09;;;11.00;100.00
14269;BME280;7218;51.480;7.006;2022-12-24T07:19:33;100138.50;;;10.86;100.00
14269;BME280;7218;51.480;7.006;2022-12-24T07:21:59;100135.00;;;10.47;100.00
14269;BME280;7218;51.480;7.006;2022-12-24T07:24:26;100138.53;;;10.46;100.00
14269;BME280;7218;51.480;7.006;2022-12-24T07:26:52;100132.97;;;10.99;100.00
14269;BME280;7218;51.480;7.006;2022-12-24T07:29:19;100129.66;;;10.91;100.00
14269;BME280;7218;51.480;7.006;2022-12-24T07:31:47;100135.16;;;10.79;100.00
14269;BME280;7218;51.480;7.006;2022-12-24T07:34:13;100137.78;;;10.79;100.00
14269;BME280;7218;51.480;7.006;2022-12-24T07:36:40;100138.59;;;10.81;100.00
14269;BME280;7218;51.480;7.006;2022-12-24T07:39:06;100143.97;;;10.75;100.00
14269;BME280;7218;51.480;7.006;2022-12-24T07:41:33;100156.53;;;10.56;100.00
14269;BME280;7218;51.480;7.006;2022-12-24T07:43:59;100156.06;;;10.38;100.00
14269;BME280;7218;51.480;7.006;2022-12-24T07:46:26;100149.44;;;10.63;100.00
14269;BME280;7218;51.480;7.006;2022-12-24T07:48:54;100162.34;;;10.69;100.00
14269;BME280;7218;51.480;7.006;2022-12-24T07:51:20;100152.69;;;10.74;100.00
14269;BME280;7218;51.480;7.006;2022-12-24T07:53:47;100164.66;;;10.41;100.00
14269;BME280;7218;51.480;7.006;2022-12-24T07:56:13;100172.31;;;10.50;100.00
14269;BME280;7218;51.480;7.006;2022-12-24T07:58:40;100169.00;;;10.42;100.00
14269;BME280;7218;51.480;7.006;2022-12-24T08:01:10;100178.34;;;10.52;100.00
14269;BME280;7218;51.480;7.006;2022-12-24T08:03:37;100182.75;;;10.50;100.00
14269;BME280;7218;51.480;7.006;2022-12-24T08:06:05;100199.97;;;10.11;100.00
14269;BME280;7218;51.480;7.006;2022-12-24T08:08:32;100206.88;;;10.15;100.00
14269;BME280;7218;51.480;7.006;2022-12-24T08:11:00;100207.66;;;10.20;100.00
14269;BME280;7218;51.480;7.006;2022-12-24T08:13:27;100217.81;;;10.35;100.00
14269;BME280;7218;51.480;7.006;2022-12-24T08:15:53;100211.56;;;10.43;100.00
14269;BME280;7218;51.480;7.006;2022-12-24T08:18:20;100209.50;;;10.58;100.00
14269;BME280;7218;51.480;7.006;2022-12-24T08:20:46;100214.75;;;10.57;100.00
14269;BME280;7218;51.480;7.006;2022-12-24T08:23:14;100222.31;;;10.70;100.00
14269;BME280;7218;51.480;7.006;2022-12-24T08:25:42;100230.22;;;10.66;100.00
14269;BME280;7218;51.480;7.006;2022-12-24T08:28:09;100237.22;;;10.64;100.00
14269;BME280;7218;51.480;7.006;2022-12-24T08:30:35;100235.75;;;10.51;100.00
14269;BME280;7218;51.480;7.006;2022-12-24T08:33:02;100242.63;;;10.53;100.00
14269;BME280;7218;51.480;7.006;2022-12-24T08:35:29;100245.44;;;10.44;100.00
14269;BME280;7218;51.480;7.006;2022-12-24T08:37:55;100233.00;;;10.57;100.00
14269;BME280;7218;51.480;7.006;2022-12-24T08:40:23;100241.91;;;10.88;100.00
14269;BME280;7218;51.480;7.006;2022-12-24T08:42:50;100246.38;;;10.82;100.00
14269;BME280;7218;51.480;7.006;2022-12-24T08:45:17;100257.50;;;10.50;100.00
14269;BME280;7218;51.480;7.006;2022-12-24T08:47:43;100244.81;;;10.74;100.00
14269;BME280;7218;51.480;7.006;2022-12-24T08:50:10;100251.25;;;10.57;100.00
14269;BME280;7218;51.480;7.006;2022-12-24T08:52:37;100256.66;;;10.48;100.00
14269;BME280;7218;51.480;7.006;2022-12-24T08:55:04;100250.44;;;10.55;100.00
14269;BME280;7218;51.480;7.006;2022-12-24T08:57:34;100262.72;;;10.48;100.00
14269;BME280;7218;51.480;7.006;2022-12-24T09:00:00;100267.72;;;10.60;100.00
14269;BME280;7218;51.480;7.006;2022-12-24T09:02:27;100268.97;;;10.84;100.00
14269;BME280;7218;51.480;7.006;2022-12-24T09:04:53;100265.84;;;11.07;100.00
14269;BME280;7218;51.480;7.006;2022-12-24T09:07:20;100272.38;;;10.86;100.00
14269;BME280;7218;51.480;7.006;2022-12-24T09:09:47;100274.06;;;10.90;100.00
14269;BME280;7218;51.480;7.006;2022-12-24T09:12:13;100269.94;;;11.20;100.00
14269;BME280;7218;51.480;7.006;2022-12-24T09:14:43;100292.06;;;11.02;100.00
14269;BME280;7218;51.480;7.006;2022-12-24T09:17:10;100290.91;;;11.15;100.00
14269;BME280;7218;51.480;7.006;2022-12-24T09:19:37;100288.63;;;11.00;100.00
14269;BME280;7218;51.480;7.006;2022-12-24T09:22:04;100294.94;;;10.90;100.00
14269;BME280;7218;51.480;7.006;2022-12-24T09:24:36;100296.19;;;11.12;100.00
14269;BME280;7218;51.480;7.006;2022-12-24T09:27:05;100305.84;;;11.07;100.00
14269;BME280;7218;51.480;7.006;2022-12-24T09:29:32;100298.47;;;11.28;100.00
14269;BME280;7218;51.480;7.006;2022-12-24T09:32:01;100310.38;;;11.01;100.00
14269;BME280;7218;51.480;7.006;2022-12-24T09:34:27;100311.09;;;11.06;100.00
14269;BME280;7218;51.480;7.006;2022-12-24T09:36:54;100308.16;;;11.22;100.00
14269;BME280;7218;51.480;7.006;2022-12-24T09:39:21;100322.06;;;11.21;100.00
14269;BME280;7218;51.480;7.006;2022-12-24T09:41:53;100324.03;;;11.12;100.00
14269;BME280;7218;51.480;7.006;2022-12-24T09:44:34;100326.22;;;11.32;100.00
14269;BME280;7218;51.480;7.006;2022-12-24T09:47:09;100329.75;;;11.31;100.00
14269;BME280;7218;51.480;7.006;2022-12-24T09:49:40;100341.53;;;11.48;100.00
14269;BME280;7218;51.480;7.006;2022-12-24T09:52:11;100346.00;;;11.42;100.00
14269;BME280;7218;51.480;7.006;2022-12-24T09:54:42;100351.88;;;11.53;100.00
14269;BME280;7218;51.480;7.006;2022-12-24T09:57:15;100354.88;;;11.35;100.00
14269;BME280;7218;51.480;7.006;2022-12-24T09:59:44;100350.09;;;11.55;100.00
14269;BME280;7218;51.480;7.006;2022-12-24T10:02:14;100354.34;;;11.59;100.00
14269;BME280;7218;51.480;7.006;2022-12-24T10:04:43;100362.06;;;11.23;100.00
14269;BME280;7218;51.480;7.006;2022-12-24T10:07:21;100361.41;;;11.54;100.00
14269;BME280;7218;51.480;7.006;2022-12-24T10:09:56;100360.53;;;11.55;100.00
14269;BME280;7218;51.480;7.006;2022-12-24T10:12:31;100360.66;;;11.49;100.00
14269;BME280;7218;51.480;7.006;2022-12-24T10:15:07;100362.94;;;11.24;100.00
14269;BME280;7218;51.480;7.006;2022-12-24T10:17:45;100363.16;;;11.53;100.00
14269;BME280;7218;51.480;7.006;2022-12-24T10:20:30;100360.59;;;11.52;100.00
14269;BME280;7218;51.480;7.006;2022-12-24T10:23:04;100360.53;;;11.55;100.00
14269;BME280;7218;51.480;7.006;2022-12-24T10:25:39;100367.09;;;11.74;100.00
14269;BME280;7218;51.480;7.006;2022-12-24T10:28:14;100371.63;;;11.25;100.00
14269;BME280;7218;51.480;7.006;2022-12-24T10:30:41;100374.56;;;11.09;100.00
14269;BME280;7218;51.480;7.006;2022-12-24T10:33:16;100376.84;;;11.25;100.00
14269;BME280;7218;51.480;7.006;2022-12-24T10:35:46;100377.66;;;11.27;100.00
14269;BME280;7218;51.480;7.006;2022-12-24T10:38:15;100372.41;;;11.28;100.00
14269;BME280;7218;51.480;7.006;2022-12-24T10:40:43;100372.22;;;10.96;100.00
14269;BME280;7218;51.480;7.006;2022-12-24T10:43:13;100383.59;;;11.35;100.00
14269;BME280;7218;51.480;7.006;2022-12-24T10:45:44;100377.28;;;11.45;100.00
14269;BME280;7218;51.480;7.006;2022-12-24T10:48:18;100374.06;;;11.72;100.00
14269;BME280;7218;51.480;7.006;2022-12-24T10:50:51;100367.22;;;11.66;100.00
14269;BME280;7218;51.480;7.006;2022-12-24T10:53:23;100371.25;;;11.83;100.00
14269;BME280;7218;51.480;7.006;2022-12-24T10:56:00;100364.78;;;11.60;100.00
14269;BME280;7218;51.480;7.006;2022-12-24T10:58:27;100369.69;;;11.34;100.00
14269;BME280;7218;51.480;7.006;2022-12-24T11:00:54;100369.25;;;11.54;100.00
14269;BME280;7218;51.480;7.006;2022-12-24T11:03:27;100366.84;;;11.45;100.00
14269;BME280;7218;51.480;7.006;2022-12-24T11:06:07;100366.94;;;11.40;100.00
14269;BME280;7218;51.480;7.006;2022-12-24T11:08:35;100376.00;;;11.64;100.00
14269;BME280;7218;51.480;7.006;2022-12-24T11:11:03;100367.53;;;11.53;100.00
14269;BME280;7218;51.480;7.006;2022-12-24T11:13:32;100370.47;;;11.38;100.00
14269;BME280;7218;51.480;7.006;2022-12-24T11:16:01;100366.66;;;11.54;100.00
14269;BME280;7218;51.480;7.006;2022-12-24T11:18:30;100362.41;;;11.88;100.00
14269;BME280;7218;51.480;7.006;2022-12-24T11:20:57;100365.16;;;11.42;100.00
14269;BME280;7218;51.480;7.006;2022-12-24T11:23:25;100361.53;;;11.49;100.00
14269;BME280;7218;51.480;7.006;2022-12-24T11:25:53;100357.94;;;11.53;100.00
14269;BME280;7218;51.480;7.006;2022-12-24T11:28:23;100348.69;;;11.79;100.00
14269;BME280;7218;51.480;7.006;2022-12-24T11:31:04;100360.59;;;11.52;100.00
14269;BME280;7218;51.480;7.006;2022-12-24T11:33:45;100359.44;;;12.03;100.00
14269;BME280;7218;51.480;7.006;2022-12-24T11:36:13;100355.38;;;11.52;100.00
14269;BME280;7218;51.480;7.006;2022-12-24T11:38:39;100360.31;;;11.24;100.00
14269;BME280;7218;51.480;7.006;2022-12-24T11:41:08;100366.22;;;11.72;100.00
14269;BME280;7218;51.480;7.006;2022-12-24T11:43:42;100364.78;;;11.60;100.00
14269;BME280;7218;51.480;7.006;2022-12-24T11:46:19;100376.16;;;11.56;100.00
14269;BME280;7218;51.480;7.006;2022-12-24T11:48:47;100373.19;;;11.72;100.00
14269;BME280;7218;51.480;7.006;2022-12-24T11:51:23;100361.44;;;11.52;100.00
14269;BME280;7218;51.480;7.006;2022-12-24T11:53:57;100365.41;;;11.70;100.00
14269;BME280;7218;51.480;7.006;2022-12-24T11:56:31;100372.63;;;11.97;100.00
14269;BME280;7218;51.480;7.006;2022-12-24T11:59:01;100360.66;;;11.89;100.00
14269;BME280;7218;51.480;7.006;2022-12-24T12:01:33;100372.34;;;11.73;100.00
14269;BME280;7218;51.480;7.006;2022-12-24T12:04:04;100377.00;;;11.58;100.00
14269;BME280;7218;51.480;7.006;2022-12-24T12:06:34;100373.41;;;12.02;100.00
14269;BME280;7218;51.480;7.006;2022-12-24T12:09:06;100377.66;;;11.68;100.00
14269;BME280;7218;51.480;7.006;2022-12-24T12:11:37;100382.59;;;12.19;100.00
14269;BME280;7218;51.480;7.006;2022-12-24T12:14:12;100384.50;;;11.75;100.00
14269;BME280;7218;51.480;7.006;2022-12-24T12:16:46;100383.81;;;11.65;100.00
14269;BME280;7218;51.480;7.006;2022-12-24T12:19:33;100388.47;;;11.91;100.00
14269;BME280;7218;51.480;7.006;2022-12-24T12:22:05;100389.06;;;12.39;100.00
14269;BME280;7218;51.480;7.006;2022-12-24T12:24:36;100398.44;;;11.74;100.00
14269;BME280;7218;51.480;7.006;2022-12-24T12:27:10;100379.56;;;12.00;100.00
14269;BME280;7218;51.480;7.006;2022-12-24T12:29:45;100397.53;;;12.14;100.00
14269;BME280;7218;51.480;7.006;2022-12-24T12:32:20;100396.19;;;11.96;100.00
14269;BME280;7218;51.480;7.006;2022-12-24T12:34:58;100396.47;;;11.85;100.00
14269;BME280;7218;51.480;7.006;2022-12-24T12:37:32;100407.41;;;12.01;100.00
14269;BME280;7218;51.480;7.006;2022-12-24T12:40:00;100394.09;;;11.72;100.00
14269;BME280;7218;51.480;7.006;2022-12-24T12:42:29;100403.28;;;11.91;100.00
14269;BME280;7218;51.480;7.006;2022-12-24T12:45:15;100402.03;;;11.67;100.00
14269;BME280;7218;51.480;7.006;2022-12-24T12:47:56;100418.56;;;12.07;100.00
14269;BME280;7218;51.480;7.006;2022-12-24T12:50:32;100402.13;;;12.73;100.00
14269;BME280;7218;51.480;7.006;2022-12-24T12:53:14;100409.59;;;13.50;100.00
14269;BME280;7218;51.480;7.006;2022-12-24T12:55:55;100405.88;;;12.95;100.00
14269;BME280;7218;51.480;7.006;2022-12-24T12:58:28;100414.53;;;12.65;100.00
14269;BME280;7218;51.480;7.006;2022-12-24T13:00:58;100410.03;;;13.94;100.00
14269;BME280;7218;51.480;7.006;2022-12-24T13:03:49;100406.75;;;13.58;99.31
14269;BME280;7218;51.480;7.006;2022-12-24T13:06:40;100420.38;;;13.09;100.00
14269;BME280;7218;51.480;7.006;2022-12-24T13:09:21;100422.16;;;13.07;100.00